sensor_id;sensor_type;location;lat;lon;timestamp;pressure;altitude;pressure_sealevel;temperature;humidity
25947;BME280;13745;51.470;9.894;2024-01-25T00:01:38;100046.03;;;8.92;74.49
25947;BME280;13745;51.470;9.894;2024-01-25T00:04:23;100050.34;;;8.91;74.30
25947;BME280;13745;51.470;9.894;2024-01-25T00:07:09;100052.06;;;8.91;74.36
25947;BME280;13745;51.470;9.894;2024-01-25T00:09:54;100051.19;;;8.90;74.43
25947;BME280;13745;51.470;9.894;2024-01-25T00:12:40;100059.81;;;8.92;74.46
25947;BME280;13745;51.470;9.894;2024-01-25T00:15:26;100055.50;;;8.90;74.37
25947;BME280;13745;51.470;9.894;2024-01-25T00:18:12;100063.25;;;8.90;74.52
25947;BME280;13745;51.470;9.894;2024-01-25T00:20:57;100059.81;;;8.91;74.61
25947;BME280;13745;51.470;9.894;2024-01-25T00:23:42;100054.69;;;8.94;74.38
25947;BME280;13745;51.470;9.894;2024-01-25T00:26:27;100058.09;;;8.91;74.01
25947;BME280;13745;51.470;9.894;2024-01-25T00:29:12;100075.34;;;8.92;74.63
25947;BME280;13745;51.470;9.894;2024-01-25T00:32:00;100077.06;;;8.93;74.18
25947;BME280;13745;51.470;9.894;2024-01-25T00:34:45;100077.06;;;8.93;74.24
25947;BME280;13745;51.470;9.894;2024-01-25T00:37:31;100075.38;;;8.94;74.33
25947;BME280;13745;51.470;9.894;2024-01-25T00:40:17;100076.22;;;8.96;74.61
25947;BME280;13745;51.470;9.894;2024-01-25T00:43:03;100069.34;;;8.95;74.36
25947;BME280;13745;51.470;9.894;2024-01-25T00:45:49;100090.88;;;8.95;74.70
25947;BME280;13745;51.470;9.894;2024-01-25T00:48:36;100088.28;;;8.94;74.40
25947;BME280;13745;51.470;9.894;2024-01-25T00:51:22;100073.66;;;8.94;74.83
25947;BME280;13745;51.470;9.894;2024-01-25T00:54:08;100086.56;;;8.96;74.93
25947;BME280;13745;51.470;9.894;2024-01-25T00:56:54;100083.13;;;8.95;74.94
25947;BME280;13745;51.470;9.894;2024-01-25T00:59:39;100060.72;;;8.96;75.05
25947;BME280;13745;51.470;9.894;2024-01-25T01:02:26;100071.06;;;8.94;74.69
25947;BME280;13745;51.470;9.894;2024-01-25T01:05:16;100070.19;;;8.94;74.93
25947;BME280;13745;51.470;9.894;2024-01-25T01:08:02;100071.88;;;8.92;75.26
25947;BME280;13745;51.470;9.894;2024-01-25T01:10:47;100083.09;;;8.92;75.07
25947;BME280;13745;51.470;9.894;2024-01-25T01:13:33;100079.66;;;8.92;75.37
25947;BME280;13745;51.470;9.894;2024-01-25T01:16:18;100086.53;;;8.91;75.25
25947;BME280;13745;51.470;9.894;2024-01-25T01:19:03;100085.69;;;8.89;75.37
25947;BME280;13745;51.470;9.894;2024-01-25T01:21:52;100084.81;;;8.89;75.27
25947;BME280;13745;51.470;9.894;2024-01-25T01:24:37;100079.63;;;8.86;75.52
25947;BME280;13745;51.470;9.894;2024-01-25T01:27:23;100083.09;;;8.88;75.77
25947;BME280;13745;51.470;9.894;2024-01-25T01:30:08;100077.06;;;8.86;75.83
25947;BME280;13745;51.470;9.894;2024-01-25T01:32:53;100083.06;;;8.85;75.63
25947;BME280;13745;51.470;9.894;2024-01-25T01:35:38;100072.72;;;8.82;75.92
25947;BME280;13745;51.470;9.894;2024-01-25T01:38:25;100079.59;;;8.80;75.98
25947;BME280;13745;51.470;9.894;2024-01-25T01:41:10;100083.91;;;8.78;75.64
25947;BME280;13745;51.470;9.894;2024-01-25T01:43:56;100083.88;;;8.76;76.01
25947;BME280;13745;51.470;9.894;2024-01-25T01:46:41;100083.00;;;8.74;76.06
25947;BME280;13745;51.470;9.894;2024-01-25T01:49:27;100095.06;;;8.73;75.90
25947;BME280;13745;51.470;9.894;2024-01-25T01:52:12;100089.03;;;8.71;76.30
25947;BME280;13745;51.470;9.894;2024-01-25T01:54:58;100086.41;;;8.67;75.93
25947;BME280;13745;51.470;9.894;2024-01-25T01:57:44;100085.53;;;8.65;75.86
25947;BME280;13745;51.470;9.894;2024-01-25T02:00:30;100088.13;;;8.62;76.23
25947;BME280;13745;51.470;9.894;2024-01-25T02:03:17;100096.69;;;8.59;76.40
25947;BME280;13745;51.470;9.894;2024-01-25T02:06:03;100098.41;;;8.57;76.58
25947;BME280;13745;51.470;9.894;2024-01-25T02:08:49;100094.97;;;8.55;76.25
25947;BME280;13745;51.470;9.894;2024-01-25T02:11:36;100089.78;;;8.55;76.26
25947;BME280;13745;51.470;9.894;2024-01-25T02:14:21;100088.94;;;8.55;76.45
25947;BME280;13745;51.470;9.894;2024-01-25T02:17:06;100085.47;;;8.54;76.17
25947;BME280;13745;51.470;9.894;2024-01-25T02:19:51;100093.25;;;8.54;76.92
25947;BME280;13745;51.470;9.894;2024-01-25T02:22:37;100099.28;;;8.55;76.69
25947;BME280;13745;51.470;9.894;2024-01-25T02:25:22;100102.66;;;8.52;76.46
25947;BME280;13745;51.470;9.894;2024-01-25T02:28:07;100109.56;;;8.50;76.79
25947;BME280;13745;51.470;9.894;2024-01-25T02:30:52;100110.41;;;8.48;76.87
25947;BME280;13745;51.470;9.894;2024-01-25T02:33:37;100126.72;;;8.43;76.94
25947;BME280;13745;51.470;9.894;2024-01-25T02:36:22;100129.31;;;8.42;77.01
25947;BME280;13745;51.470;9.894;2024-01-25T02:39:09;100135.31;;;8.39;77.05
25947;BME280;13745;51.470;9.894;2024-01-25T02:41:54;100151.66;;;8.37;77.04
25947;BME280;13745;51.470;9.894;2024-01-25T02:44:39;100168.91;;;8.39;77.00
25947;BME280;13745;51.470;9.894;2024-01-25T02:47:24;100175.81;;;8.42;77.09
25947;BME280;13745;51.470;9.894;2024-01-25T02:50:09;100162.91;;;8.43;76.72
25947;BME280;13745;51.470;9.894;2024-01-25T02:52:54;100166.38;;;8.46;76.84
25947;BME280;13745;51.470;9.894;2024-01-25T02:55:41;100162.94;;;8.48;77.15
25947;BME280;13745;51.470;9.894;2024-01-25T02:58:26;100161.22;;;8.50;77.00
25947;BME280;13745;51.470;9.894;2024-01-25T03:01:12;100172.44;;;8.51;76.72
25947;BME280;13745;51.470;9.894;2024-01-25T03:03:57;100182.75;;;8.52;77.00
25947;BME280;13745;51.470;9.894;2024-01-25T03:06:42;100168.16;;;8.54;76.91
25947;BME280;13745;51.470;9.894;2024-01-25T03:09:28;100155.25;;;8.53;77.12
25947;BME280;13745;51.470;9.894;2024-01-25T03:12:14;100147.44;;;8.47;77.47
25947;BME280;13745;51.470;9.894;2024-01-25T03:14:59;100161.16;;;8.39;77.14
25947;BME280;13745;51.470;9.894;2024-01-25T03:17:45;100144.69;;;8.33;77.77
25947;BME280;13745;51.470;9.894;2024-01-25T03:20:30;100148.94;;;8.23;77.54
25947;BME280;13745;51.470;9.894;2024-01-25T03:23:15;100163.50;;;8.15;77.98
25947;BME280;13745;51.470;9.894;2024-01-25T03:26:01;100178.06;;;8.10;78.08
25947;BME280;13745;51.470;9.894;2024-01-25T03:28:48;100184.94;;;8.06;77.76
25947;BME280;13745;51.470;9.894;2024-01-25T03:31:33;100174.59;;;8.06;78.10
25947;BME280;13745;51.470;9.894;2024-01-25T03:34:19;100165.13;;;8.05;78.18
25947;BME280;13745;51.470;9.894;2024-01-25T03:37:05;100176.31;;;8.07;77.65
25947;BME280;13745;51.470;9.894;2024-01-25T03:39:50;100187.53;;;8.09;77.77
25947;BME280;13745;51.470;9.894;2024-01-25T03:42:35;100192.72;;;8.11;78.11
25947;BME280;13745;51.470;9.894;2024-01-25T03:45:21;100196.19;;;8.13;77.62
25947;BME280;13745;51.470;9.894;2024-01-25T03:48:06;100196.19;;;8.11;77.89
25947;BME280;13745;51.470;9.894;2024-01-25T03:50:51;100194.41;;;8.09;77.90
25947;BME280;13745;51.470;9.894;2024-01-25T03:53:40;100209.88;;;8.04;77.74
25947;BME280;13745;51.470;9.894;2024-01-25T03:56:26;100208.16;;;8.03;77.84
25947;BME280;13745;51.470;9.894;2024-01-25T03:59:12;100202.94;;;8.02;77.68
25947;BME280;13745;51.470;9.894;2024-01-25T04:01:59;100218.41;;;7.99;77.31
25947;BME280;13745;51.470;9.894;2024-01-25T04:04:44;100215.03;;;8.03;78.00
25947;BME280;13745;51.470;9.894;2024-01-25T04:07:29;100201.25;;;8.04;77.86
25947;BME280;13745;51.470;9.894;2024-01-25T04:10:14;100206.44;;;8.04;77.33
25947;BME280;13745;51.470;9.894;2024-01-25T04:13:00;100201.22;;;8.01;77.37
25947;BME280;13745;51.470;9.894;2024-01-25T04:15:46;100200.31;;;7.97;77.67
25947;BME280;13745;51.470;9.894;2024-01-25T04:18:33;100184.78;;;7.91;77.97
25947;BME280;13745;51.470;9.894;2024-01-25T04:21:18;100182.97;;;7.84;77.88
25947;BME280;13745;51.470;9.894;2024-01-25T04:24:04;100176.91;;;7.79;78.22
25947;BME280;13745;51.470;9.894;2024-01-25T04:26:49;100176.84;;;7.73;78.18
25947;BME280;13745;51.470;9.894;2024-01-25T04:29:38;100175.06;;;7.69;78.14
25947;BME280;13745;51.470;9.894;2024-01-25T04:32:23;100170.72;;;7.65;78.44
25947;BME280;13745;51.470;9.894;2024-01-25T04:35:10;100160.38;;;7.62;78.48
25947;BME280;13745;51.470;9.894;2024-01-25T04:37:55;100171.53;;;7.60;78.44
25947;BME280;13745;51.470;9.894;2024-01-25T04:40:40;100177.53;;;7.58;77.86
25947;BME280;13745;51.470;9.894;2024-01-25T04:43:25;100175.78;;;7.57;77.97
25947;BME280;13745;51.470;9.894;2024-01-25T04:46:10;100179.22;;;7.54;78.40
25947;BME280;13745;51.470;9.894;2024-01-25T04:48:56;100177.50;;;7.55;78.69
25947;BME280;13745;51.470;9.894;2024-01-25T04:51:42;100187.00;;;7.59;78.41
25947;BME280;13745;51.470;9.894;2024-01-25T04:54:27;100193.09;;;7.64;77.94
25947;BME280;13745;51.470;9.894;2024-01-25T04:57:13;100192.25;;;7.68;77.94
25947;BME280;13745;51.470;9.894;2024-01-25T04:59:58;100193.13;;;7.69;78.20
25947;BME280;13745;51.470;9.894;2024-01-25T05:02:43;100205.22;;;7.71;78.23
25947;BME280;13745;51.470;9.894;2024-01-25T05:05:28;100219.00;;;7.75;77.85
25947;BME280;13745;51.470;9.894;2024-01-25T05:08:15;100217.28;;;7.75;78.18
25947;BME280;13745;51.470;9.894;2024-01-25T05:11:00;100223.38;;;7.80;78.21
25947;BME280;13745;51.470;9.894;2024-01-25T05:13:45;100229.38;;;7.79;77.64
25947;BME280;13745;51.470;9.894;2024-01-25T05:16:30;100229.41;;;7.81;78.30
25947;BME280;13745;51.470;9.894;2024-01-25T05:19:15;100213.91;;;7.81;78.16
25947;BME280;13745;51.470;9.894;2024-01-25T05:22:01;100216.47;;;7.78;78.24
25947;BME280;13745;51.470;9.894;2024-01-25T05:24:51;100227.59;;;7.75;77.92
25947;BME280;13745;51.470;9.894;2024-01-25T05:27:36;100231.03;;;7.74;78.05
25947;BME280;13745;51.470;9.894;2024-01-25T05:30:21;100229.28;;;7.72;77.69
25947;BME280;13745;51.470;9.894;2024-01-25T05:33:07;100240.44;;;7.69;77.58
25947;BME280;13745;51.470;9.894;2024-01-25T05:35:52;100227.50;;;7.65;77.96
25947;BME280;13745;51.470;9.894;2024-01-25T05:38:37;100246.34;;;7.60;77.58
25947;BME280;13745;51.470;9.894;2024-01-25T05:41:23;100243.75;;;7.60;77.99
25947;BME280;13745;51.470;9.894;2024-01-25T05:44:09;100255.00;;;7.63;78.06
25947;BME280;13745;51.470;9.894;2024-01-25T05:46:54;100251.56;;;7.64;77.55
25947;BME280;13745;51.470;9.894;2024-01-25T05:49:40;100250.72;;;7.66;77.53
25947;BME280;13745;51.470;9.894;2024-01-25T05:52:25;100249.00;;;7.68;77.97
25947;BME280;13745;51.470;9.894;2024-01-25T05:55:10;100258.47;;;7.69;77.93
25947;BME280;13745;51.470;9.894;2024-01-25T05:57:59;100261.97;;;7.70;78.05
25947;BME280;13745;51.470;9.894;2024-01-25T06:00:44;100262.00;;;7.73;78.26
25947;BME280;13745;51.470;9.894;2024-01-25T06:03:29;100267.16;;;7.73;77.70
25947;BME280;13745;51.470;9.894;2024-01-25T06:06:14;100264.53;;;7.70;77.61
25947;BME280;13745;51.470;9.894;2024-01-25T06:09:00;100266.22;;;7.69;77.85
25947;BME280;13745;51.470;9.894;2024-01-25T06:11:45;100264.47;;;7.67;78.02
25947;BME280;13745;51.470;9.894;2024-01-25T06:14:31;100273.06;;;7.64;78.33
25947;BME280;13745;51.470;9.894;2024-01-25T06:17:16;100282.50;;;7.62;78.19
25947;BME280;13745;51.470;9.894;2024-01-25T06:20:02;100285.94;;;7.63;77.83
25947;BME280;13745;51.470;9.894;2024-01-25T06:22:48;100285.94;;;7.63;78.06
25947;BME280;13745;51.470;9.894;2024-01-25T06:25:33;100291.13;;;7.66;77.91
25947;BME280;13745;51.470;9.894;2024-01-25T06:28:20;100314.38;;;7.67;78.06
25947;BME280;13745;51.470;9.894;2024-01-25T06:31:06;100306.66;;;7.69;77.94
25947;BME280;13745;51.470;9.894;2024-01-25T06:33:52;100304.06;;;7.69;77.83
25947;BME280;13745;51.470;9.894;2024-01-25T06:36:37;100316.16;;;7.71;78.06
25947;BME280;13745;51.470;9.894;2024-01-25T06:39:22;100314.44;;;7.70;77.32
25947;BME280;13745;51.470;9.894;2024-01-25T06:42:07;100325.63;;;7.71;77.96
25947;BME280;13745;51.470;9.894;2024-01-25T06:44:53;100325.63;;;7.72;77.50
25947;BME280;13745;51.470;9.894;2024-01-25T06:47:39;100326.50;;;7.73;77.84
25947;BME280;13745;51.470;9.894;2024-01-25T06:50:24;100336.81;;;7.71;77.42
25947;BME280;13745;51.470;9.894;2024-01-25T06:53:10;100337.66;;;7.70;77.89
25947;BME280;13745;51.470;9.894;2024-01-25T06:55:55;100345.41;;;7.72;77.85
25947;BME280;13745;51.470;9.894;2024-01-25T06:58:40;100343.69;;;7.72;77.99
25947;BME280;13745;51.470;9.894;2024-01-25T07:01:25;100341.97;;;7.71;77.80
25947;BME280;13745;51.470;9.894;2024-01-25T07:04:13;100359.19;;;7.72;77.93
25947;BME280;13745;51.470;9.894;2024-01-25T07:06:58;100369.50;;;7.71;77.55
25947;BME280;13745;51.470;9.894;2024-01-25T07:09:43;100361.75;;;7.72;77.50
25947;BME280;13745;51.470;9.894;2024-01-25T07:12:29;100371.25;;;7.75;77.46
25947;BME280;13745;51.470;9.894;2024-01-25T07:15:14;100377.28;;;7.77;77.83
25947;BME280;13745;51.470;9.894;2024-01-25T07:17:59;100379.88;;;7.77;77.32
25947;BME280;13745;51.470;9.894;2024-01-25T07:20:45;100376.41;;;7.75;77.35
25947;BME280;13745;51.470;9.894;2024-01-25T07:23:32;100372.09;;;7.72;77.15
25947;BME280;13745;51.470;9.894;2024-01-25T07:26:18;100382.44;;;7.74;77.41
25947;BME280;13745;51.470;9.894;2024-01-25T07:29:03;100388.47;;;7.76;77.80
25947;BME280;13745;51.470;9.894;2024-01-25T07:31:48;100387.59;;;7.75;77.55
25947;BME280;13745;51.470;9.894;2024-01-25T07:34:33;100392.78;;;7.77;77.03
25947;BME280;13745;51.470;9.894;2024-01-25T07:37:19;100399.66;;;7.76;77.16
25947;BME280;13745;51.470;9.894;2024-01-25T07:40:06;100393.66;;;7.77;77.30
25947;BME280;13745;51.470;9.894;2024-01-25T07:42:51;100399.63;;;7.75;77.61
25947;BME280;13745;51.470;9.894;2024-01-25T07:45:36;100406.50;;;7.74;77.66
25947;BME280;13745;51.470;9.894;2024-01-25T07:48:22;100416.06;;;7.78;77.50
25947;BME280;13745;51.470;9.894;2024-01-25T07:51:10;100410.06;;;7.81;77.85
25947;BME280;13745;51.470;9.894;2024-01-25T07:53:57;100406.63;;;7.83;77.17
25947;BME280;13745;51.470;9.894;2024-01-25T07:56:42;100402.34;;;7.85;77.07
25947;BME280;13745;51.470;9.894;2024-01-25T07:59:27;100410.09;;;7.84;77.18
25947;BME280;13745;51.470;9.894;2024-01-25T08:02:12;100415.31;;;7.87;77.04
25947;BME280;13745;51.470;9.894;2024-01-25T08:04:58;100423.09;;;7.90;77.38
25947;BME280;13745;51.470;9.894;2024-01-25T08:07:45;100418.78;;;7.91;77.10
25947;BME280;13745;51.470;9.894;2024-01-25T08:10:32;100417.91;;;7.88;77.22
25947;BME280;13745;51.470;9.894;2024-01-25T08:13:16;100417.03;;;7.88;77.30
25947;BME280;13745;51.470;9.894;2024-01-25T08:16:02;100416.19;;;7.89;77.67
25947;BME280;13745;51.470;9.894;2024-01-25T08:18:48;100416.25;;;7.94;77.58
25947;BME280;13745;51.470;9.894;2024-01-25T08:21:33;100415.50;;;8.02;77.62
25947;BME280;13745;51.470;9.894;2024-01-25T08:24:19;100414.81;;;8.14;77.41
25947;BME280;13745;51.470;9.894;2024-01-25T08:27:06;100420.94;;;8.21;76.68
25947;BME280;13745;51.470;9.894;2024-01-25T08:29:52;100426.13;;;8.24;76.63
25947;BME280;13745;51.470;9.894;2024-01-25T08:32:37;100421.06;;;8.33;76.35
25947;BME280;13745;51.470;9.894;2024-01-25T08:35:22;100431.56;;;8.42;76.59
25947;BME280;13745;51.470;9.894;2024-01-25T08:38:07;100431.75;;;8.57;75.96
25947;BME280;13745;51.470;9.894;2024-01-25T08:40:52;100441.41;;;8.72;75.96
25947;BME280;13745;51.470;9.894;2024-01-25T08:43:38;100449.22;;;8.78;75.19
25947;BME280;13745;51.470;9.894;2024-01-25T08:46:24;100432.09;;;8.89;75.31
25947;BME280;13745;51.470;9.894;2024-01-25T08:49:09;100435.56;;;8.90;74.79
25947;BME280;13745;51.470;9.894;2024-01-25T08:51:56;100438.28;;;9.02;74.64
25947;BME280;13745;51.470;9.894;2024-01-25T08:54:41;100430.63;;;9.11;74.65
25947;BME280;13745;51.470;9.894;2024-01-25T08:57:26;100429.06;;;9.35;74.58
25947;BME280;13745;51.470;9.894;2024-01-25T09:00:12;100426.59;;;9.48;74.01
25947;BME280;13745;51.470;9.894;2024-01-25T09:02:57;100437.09;;;9.64;73.75
25947;BME280;13745;51.470;9.894;2024-01-25T09:05:42;100440.66;;;9.84;73.33
25947;BME280;13745;51.470;9.894;2024-01-25T09:08:29;100447.78;;;10.11;72.66
25947;BME280;13745;51.470;9.894;2024-01-25T09:11:14;100449.81;;;10.84;71.20
25947;BME280;13745;51.470;9.894;2024-01-25T09:14:00;100444.56;;;12.58;67.99
25947;BME280;13745;51.470;9.894;2024-01-25T09:16:46;100437.41;;;13.00;66.59
25947;BME280;13745;51.470;9.894;2024-01-25T09:19:31;100446.88;;;14.16;64.61
25947;BME280;13745;51.470;9.894;2024-01-25T09:22:16;100459.88;;;14.93;62.86
25947;BME280;13745;51.470;9.894;2024-01-25T09:25:03;100448.00;;;15.30;61.42
25947;BME280;13745;51.470;9.894;2024-01-25T09:27:51;100446.19;;;15.35;61.23
25947;BME280;13745;51.470;9.894;2024-01-25T09:30:36;100459.78;;;14.28;62.79
25947;BME280;13745;51.470;9.894;2024-01-25T09:33:22;100450.38;;;14.87;61.79
25947;BME280;13745;51.470;9.894;2024-01-25T09:36:07;100446.69;;;16.10;59.30
25947;BME280;13745;51.470;9.894;2024-01-25T09:38:53;100435.00;;;16.72;58.33
25947;BME280;13745;51.470;9.894;2024-01-25T09:41:38;100443.59;;;16.34;58.11
25947;BME280;13745;51.470;9.894;2024-01-25T09:44:23;100451.41;;;17.56;56.23
25947;BME280;13745;51.470;9.894;2024-01-25T09:47:08;100459.66;;;17.02;56.77
25947;BME280;13745;51.470;9.894;2024-01-25T09:49:55;100462.81;;;16.78;56.95
25947;BME280;13745;51.470;9.894;2024-01-25T09:52:43;100463.59;;;17.22;55.75
25947;BME280;13745;51.470;9.894;2024-01-25T09:55:30;100472.78;;;15.63;58.05
25947;BME280;13745;51.470;9.894;2024-01-25T09:58:17;100491.00;;;14.36;60.63
25947;BME280;13745;51.470;9.894;2024-01-25T10:01:03;100494.50;;;13.32;62.58
25947;BME280;13745;51.470;9.894;2024-01-25T10:03:48;100495.72;;;12.53;64.07
25947;BME280;13745;51.470;9.894;2024-01-25T10:06:34;100499.31;;;11.94;65.24
25947;BME280;13745;51.470;9.894;2024-01-25T10:09:20;100500.13;;;11.44;65.95
25947;BME280;13745;51.470;9.894;2024-01-25T10:12:05;100486.00;;;12.96;63.88
25947;BME280;13745;51.470;9.894;2024-01-25T10:14:50;100491.06;;;15.65;58.90
25947;BME280;13745;51.470;9.894;2024-01-25T10:17:35;100482.53;;;19.56;51.92
25947;BME280;13745;51.470;9.894;2024-01-25T10:20:21;100495.34;;;19.67;51.15
25947;BME280;13745;51.470;9.894;2024-01-25T10:23:09;100486.56;;;21.58;48.29
25947;BME280;13745;51.470;9.894;2024-01-25T10:25:55;100495.34;;;19.67;50.80
25947;BME280;13745;51.470;9.894;2024-01-25T10:28:40;100490.50;;;19.53;51.14
25947;BME280;13745;51.470;9.894;2024-01-25T10:31:27;100484.25;;;18.39;52.39
25947;BME280;13745;51.470;9.894;2024-01-25T10:34:13;100494.19;;;17.94;53.05
25947;BME280;13745;51.470;9.894;2024-01-25T10:36:59;100494.50;;;17.45;53.84
25947;BME280;13745;51.470;9.894;2024-01-25T10:39:45;100482.72;;;16.42;55.27
25947;BME280;13745;51.470;9.894;2024-01-25T10:42:31;100487.22;;;15.86;56.18
25947;BME280;13745;51.470;9.894;2024-01-25T10:45:16;100482.66;;;15.98;55.97
25947;BME280;13745;51.470;9.894;2024-01-25T10:48:02;100496.38;;;16.11;55.77
25947;BME280;13745;51.470;9.894;2024-01-25T10:50:47;100499.66;;;15.73;56.12
25947;BME280;13745;51.470;9.894;2024-01-25T10:53:33;100507.75;;;14.93;57.25
25947;BME280;13745;51.470;9.894;2024-01-25T10:56:20;100502.34;;;14.33;58.12
25947;BME280;13745;51.470;9.894;2024-01-25T10:59:06;100498.16;;;14.14;58.81
25947;BME280;13745;51.470;9.894;2024-01-25T11:01:54;100488.34;;;14.39;58.44
25947;BME280;13745;51.470;9.894;2024-01-25T11:04:39;100497.66;;;14.64;57.90
25947;BME280;13745;51.470;9.894;2024-01-25T11:07:24;100490.81;;;15.23;57.00
25947;BME280;13745;51.470;9.894;2024-01-25T11:10:13;100478.53;;;15.84;55.94
25947;BME280;13745;51.470;9.894;2024-01-25T11:13:01;100488.22;;;15.20;56.49
25947;BME280;13745;51.470;9.894;2024-01-25T11:15:47;100486.63;;;14.38;57.84
25947;BME280;13745;51.470;9.894;2024-01-25T11:18:33;100493.38;;;13.65;58.66
25947;BME280;13745;51.470;9.894;2024-01-25T11:21:22;100498.09;;;13.08;60.00
25947;BME280;13745;51.470;9.894;2024-01-25T11:24:12;100501.72;;;12.65;60.44
25947;BME280;13745;51.470;9.894;2024-01-25T11:26:57;100508.72;;;12.53;60.95
25947;BME280;13745;51.470;9.894;2024-01-25T11:29:47;100501.53;;;13.07;60.26
25947;BME280;13745;51.470;9.894;2024-01-25T11:32:32;100494.69;;;13.00;60.14
25947;BME280;13745;51.470;9.894;2024-01-25T11:35:17;100508.78;;;12.37;61.38
25947;BME280;13745;51.470;9.894;2024-01-25T11:38:02;100498.47;;;11.92;62.24
25947;BME280;13745;51.470;9.894;2024-01-25T11:40:47;100503.59;;;11.55;62.82
25947;BME280;13745;51.470;9.894;2024-01-25T11:43:32;100505.28;;;11.32;63.53
25947;BME280;13745;51.470;9.894;2024-01-25T11:46:19;100505.25;;;11.12;63.99
25947;BME280;13745;51.470;9.894;2024-01-25T11:49:05;100502.63;;;10.98;64.02
25947;BME280;13745;51.470;9.894;2024-01-25T11:51:50;100493.03;;;10.69;64.51
25947;BME280;13745;51.470;9.894;2024-01-25T11:54:35;100492.94;;;10.51;64.92
25947;BME280;13745;51.470;9.894;2024-01-25T11:57:20;100486.03;;;10.52;65.11
25947;BME280;13745;51.470;9.894;2024-01-25T12:00:07;100491.44;;;11.10;64.26
25947;BME280;13745;51.470;9.894;2024-01-25T12:02:55;100476.63;;;12.57;61.75
25947;BME280;13745;51.470;9.894;2024-01-25T12:05:40;100480.81;;;12.88;61.13
25947;BME280;13745;51.470;9.894;2024-01-25T12:08:26;100484.41;;;12.63;61.21
25947;BME280;13745;51.470;9.894;2024-01-25T12:11:11;100490.53;;;12.41;62.17
25947;BME280;13745;51.470;9.894;2024-01-25T12:13:56;100482.63;;;14.03;59.47
25947;BME280;13745;51.470;9.894;2024-01-25T12:16:41;100476.44;;;15.52;56.66
25947;BME280;13745;51.470;9.894;2024-01-25T12:19:29;100455.84;;;16.77;54.26
25947;BME280;13745;51.470;9.894;2024-01-25T12:22:20;100461.41;;;17.02;53.34
25947;BME280;13745;51.470;9.894;2024-01-25T12:25:09;100467.56;;;16.57;53.99
25947;BME280;13745;51.470;9.894;2024-01-25T12:27:56;100458.38;;;16.37;54.03
25947;BME280;13745;51.470;9.894;2024-01-25T12:30:41;100455.59;;;16.88;53.07
25947;BME280;13745;51.470;9.894;2024-01-25T12:33:27;100451.28;;;15.98;54.38
25947;BME280;13745;51.470;9.894;2024-01-25T12:36:14;100443.72;;;16.28;54.05
25947;BME280;13745;51.470;9.894;2024-01-25T12:38:59;100440.41;;;17.03;52.90
25947;BME280;13745;51.470;9.894;2024-01-25T12:41:44;100435.16;;;17.05;52.82
25947;BME280;13745;51.470;9.894;2024-01-25T12:44:29;100433.16;;;17.87;51.66
25947;BME280;13745;51.470;9.894;2024-01-25T12:47:14;100425.72;;;18.03;51.23
25947;BME280;13745;51.470;9.894;2024-01-25T12:50:00;100417.03;;;18.93;50.10
25947;BME280;13745;51.470;9.894;2024-01-25T12:52:46;100415.19;;;20.51;47.41
25947;BME280;13745;51.470;9.894;2024-01-25T12:55:31;100406.06;;;21.28;46.42
25947;BME280;13745;51.470;9.894;2024-01-25T12:58:17;100411.44;;;22.28;45.38
25947;BME280;13745;51.470;9.894;2024-01-25T13:01:02;100401.16;;;23.70;43.08
25947;BME280;13745;51.470;9.894;2024-01-25T13:03:47;100400.25;;;25.02;41.50
25947;BME280;13745;51.470;9.894;2024-01-25T13:06:32;100400.81;;;26.13;39.95
25947;BME280;13745;51.470;9.894;2024-01-25T13:09:18;100406.00;;;26.85;38.74
25947;BME280;13745;51.470;9.894;2024-01-25T13:12:04;100398.25;;;27.36;38.62
25947;BME280;13745;51.470;9.894;2024-01-25T13:14:49;100383.03;;;27.91;37.69
25947;BME280;13745;51.470;9.894;2024-01-25T13:17:34;100395.94;;;28.35;37.37
25947;BME280;13745;51.470;9.894;2024-01-25T13:20:20;100387.16;;;28.46;36.65
25947;BME280;13745;51.470;9.894;2024-01-25T13:23:05;100394.53;;;28.55;36.65
25947;BME280;13745;51.470;9.894;2024-01-25T13:25:52;100395.88;;;28.61;36.75
25947;BME280;13745;51.470;9.894;2024-01-25T13:28:36;100392.91;;;27.36;37.70
25947;BME280;13745;51.470;9.894;2024-01-25T13:31:21;100402.94;;;25.17;39.77
25947;BME280;13745;51.470;9.894;2024-01-25T13:34:06;100407.75;;;25.41;39.72
25947;BME280;13745;51.470;9.894;2024-01-25T13:36:52;100400.25;;;26.08;38.78
25947;BME280;13745;51.470;9.894;2024-01-25T13:39:37;100402.25;;;26.32;38.45
25947;BME280;13745;51.470;9.894;2024-01-25T13:42:23;100398.84;;;26.45;37.86
25947;BME280;13745;51.470;9.894;2024-01-25T13:45:09;100409.66;;;25.23;38.50
25947;BME280;13745;51.470;9.894;2024-01-25T13:47:54;100403.13;;;24.34;39.34
25947;BME280;13745;51.470;9.894;2024-01-25T13:50:39;100404.72;;;23.34;39.93
25947;BME280;13745;51.470;9.894;2024-01-25T13:53:24;100402.03;;;22.79;40.07
25947;BME280;13745;51.470;9.894;2024-01-25T13:56:09;100396.66;;;21.63;41.62
25947;BME280;13745;51.470;9.894;2024-01-25T13:58:55;100398.22;;;20.34;42.94
25947;BME280;13745;51.470;9.894;2024-01-25T14:01:41;100400.72;;;19.38;43.68
25947;BME280;13745;51.470;9.894;2024-01-25T14:04:26;100410.59;;;18.75;44.68
25947;BME280;13745;51.470;9.894;2024-01-25T14:07:13;100409.88;;;17.75;45.91
25947;BME280;13745;51.470;9.894;2024-01-25T14:09:58;100401.88;;;16.68;47.36
25947;BME280;13745;51.470;9.894;2024-01-25T14:12:43;100407.47;;;15.60;48.79
25947;BME280;13745;51.470;9.894;2024-01-25T14:15:30;100411.72;;;14.50;50.04
25947;BME280;13745;51.470;9.894;2024-01-25T14:18:15;100416.06;;;13.70;51.69
25947;BME280;13745;51.470;9.894;2024-01-25T14:21:00;100417.38;;;13.09;52.68
25947;BME280;13745;51.470;9.894;2024-01-25T14:23:45;100422.00;;;12.66;53.74
25947;BME280;13745;51.470;9.894;2024-01-25T14:26:30;100421.25;;;12.30;54.42
25947;BME280;13745;51.470;9.894;2024-01-25T14:29:15;100416.16;;;12.01;55.00
25947;BME280;13745;51.470;9.894;2024-01-25T14:32:02;100420.47;;;11.73;55.60
25947;BME280;13745;51.470;9.894;2024-01-25T14:34:47;100414.47;;;11.53;55.92